Time;durP1;ratioP1;P1;durP2;ratioP2;P2;SDS_P1;SDS_P2;PMS_P1;PMS_P2;Temp;Humidity;BMP_temperature;BMP_pressure;BME280_temperature;BME280_humidity;BME280_pressure;Samples;Min_cycle;Max_cycle;Signal;HPM_P1;HPM_P2
2022/09/06 00:01:53;;;;;;;3.10;1.92;;;20.50;50.80;;;;;;6060617;23;20167;-82
2022/09/06 00:04:25;;;;;;;3.08;2.10;;;20.50;50.80;;;;;;6108770;23;20191;-82
2022/09/06 00:06:56;;;;;;;4.10;2.10;;;20.40;50.80;;;;;;6084907;23;20161;-82
2022/09/06 00:09:24;;;;;;;4.00;1.90;;;20.50;50.80;;;;;;6061230;23;20164;-82
2022/09/06 00:11:52;;;;;;;2.30;2.08;;;20.50;50.80;;;;;;6061328;23;20244;-82
2022/09/06 00:14:18;;;;;;;4.30;2.17;;;20.50;50.80;;;;;;6037428;23;20196;-81
2022/09/06 00:16:48;;;;;;;4.05;2.03;;;20.50;50.80;;;;;;6109739;23;20293;-83
2022/09/06 00:19:18;;;;;;;3.72;1.80;;;20.50;50.80;;;;;;6084134;23;20184;-81
2022/09/06 00:21:48;;;;;;;2.80;1.90;;;20.50;50.90;;;;;;6037071;23;20164;-82
2022/09/06 00:24:16;;;;;;;3.55;2.08;;;20.50;50.80;;;;;;6063094;23;20152;-82
2022/09/06 00:26:46;;;;;;;3.83;2.33;;;20.50;51.60;;;;;;6070319;23;20178;-82
2022/09/06 00:29:16;;;;;;;2.17;1.80;;;20.50;50.90;;;;;;6143960;23;20159;-81
2022/09/06 00:31:44;;;;;;;3.95;1.90;;;20.40;50.90;;;;;;6070830;23;20223;-82
2022/09/06 00:34:17;;;;;;;2.78;1.88;;;20.50;51.00;;;;;;6118752;23;20167;-82
2022/09/06 00:36:44;;;;;;;3.17;1.83;;;20.40;50.90;;;;;;6070040;23;20159;-82
2022/09/06 00:39:14;;;;;;;2.50;2.03;;;20.40;50.90;;;;;;6070527;23;20194;-81
2022/09/06 00:41:41;;;;;;;5.75;2.20;;;20.50;50.90;;;;;;6143422;23;20580;-82
2022/09/06 00:44:08;;;;;;;2.22;1.92;;;20.40;50.90;;;;;;6070539;23;20607;-82
2022/09/06 00:46:38;;;;;;;2.42;2.00;;;20.40;50.90;;;;;;6070963;23;20166;-82
2022/09/06 00:49:11;;;;;;;3.05;2.00;;;20.50;51.00;;;;;;6119599;23;20179;-81
2022/09/06 00:51:41;;;;;;;3.28;2.10;;;20.40;51.00;;;;;;6072044;23;20159;-82
2022/09/06 00:54:13;;;;;;;2.70;1.73;;;20.40;51.00;;;;;;6069832;23;20235;-82
2022/09/06 00:56:44;;;;;;;2.50;1.80;;;20.40;51.00;;;;;;6142834;23;20614;-82
2022/09/06 00:59:14;;;;;;;3.92;2.00;;;20.40;51.00;;;;;;6070456;23;20190;-82
2022/09/06 01:01:42;;;;;;;3.47;2.00;;;20.40;51.10;;;;;;6094838;23;20257;-82
2022/09/06 01:04:16;;;;;;;3.55;2.47;;;20.40;51.00;;;;;;6094792;23;20183;-81
2022/09/06 01:07:05;;;;;;;3.40;2.00;;;20.40;51.10;;;;;;6118781;23;20159;-82
2022/09/06 01:10:07;;;;;;;3.22;2.17;;;20.40;51.10;;;;;;6079461;23;20210;-82
2022/09/06 01:13:00;;;;;;;2.30;2.10;;;20.40;51.10;;;;;;6140540;23;20151;-83
2022/09/06 01:15:50;;;;;;;2.97;2.20;;;20.40;51.10;;;;;;6068355;23;20151;-83
2022/09/06 01:18:46;;;;;;;3.30;1.90;;;20.40;51.10;;;;;;6055534;23;20196;-81
2022/09/06 01:21:27;;;;;;;3.10;2.20;;;20.40;51.10;;;;;;5993547;23;20157;-82
2022/09/06 01:24:15;;;;;;;2.90;2.00;;;20.40;51.10;;;;;;6009622;23;20589;-82
2022/09/06 01:27:07;;;;;;;5.25;1.83;;;20.40;51.20;;;;;;6032020;23;20173;-82
2022/09/06 01:29:58;;;;;;;4.53;2.10;;;20.40;51.20;;;;;;6034646;23;20228;-82
2022/09/06 01:32:29;;;;;;;2.92;2.20;;;20.30;51.10;;;;;;6060009;23;20186;-82
2022/09/06 01:35:04;;;;;;;1.90;1.80;;;20.40;51.20;;;;;;6056510;23;20137;-82
2022/09/06 01:37:30;;;;;;;2.40;1.80;;;20.30;51.20;;;;;;6035191;23;20497;-82
2022/09/06 01:39:59;;;;;;;2.92;1.90;;;20.40;51.20;;;;;;6034385;23;20145;-81
2022/09/06 01:42:32;;;;;;;3.70;1.98;;;20.30;51.10;;;;;;6057236;23;20204;-82
2022/09/06 01:45:04;;;;;;;1.85;1.75;;;20.30;51.20;;;;;;6056911;23;20240;-81
2022/09/06 01:47:53;;;;;;;3.38;2.10;;;20.30;51.20;;;;;;6056973;23;20172;-81
2022/09/06 01:50:43;;;;;;;2.63;2.10;;;20.40;51.30;;;;;;6089055;23;20174;-82
2022/09/06 01:53:48;;;;;;;2.53;1.73;;;20.30;51.20;;;;;;6044518;23;20163;-82
2022/09/06 01:56:33;;;;;;;1.95;1.75;;;20.30;51.20;;;;;;6124829;23;20136;-81
2022/09/06 01:59:21;;;;;;;2.95;2.35;;;20.30;51.80;;;;;;6094248;23;20170;-83
2022/09/06 02:01:56;;;;;;;3.50;2.05;;;20.40;51.30;;;;;;6094385;23;20139;-81
2022/09/06 02:04:29;;;;;;;2.05;1.75;;;20.30;51.20;;;;;;6141466;23;20139;-81
2022/09/06 02:07:01;;;;;;;2.35;2.10;;;20.30;51.30;;;;;;6092299;23;20128;-81
2022/09/06 02:09:28;;;;;;;2.47;2.20;;;20.30;51.20;;;;;;6068275;23;20472;-81
2022/09/06 02:12:00;;;;;;;2.30;1.85;;;20.30;51.20;;;;;;6092213;23;20159;-82
2022/09/06 02:14:37;;;;;;;2.33;1.80;;;20.30;51.30;;;;;;6091346;23;20232;-82
2022/09/06 02:17:04;;;;;;;2.65;1.77;;;20.30;51.30;;;;;;6094103;23;20132;-82
2022/09/06 02:19:33;;;;;;;2.53;1.98;;;20.30;51.30;;;;;;6092274;23;20145;-82
2022/09/06 02:21:59;;;;;;;3.30;2.05;;;20.30;51.40;;;;;;6092708;23;20144;-81
2022/09/06 02:24:29;;;;;;;2.38;2.00;;;20.30;51.30;;;;;;6141685;23;20139;-82
2022/09/06 02:26:55;;;;;;;2.40;1.70;;;20.30;51.30;;;;;;6068403;23;20186;-82
2022/09/06 02:29:22;;;;;;;4.65;1.90;;;20.30;51.30;;;;;;6091778;23;20137;-81
2022/09/06 02:31:57;;;;;;;2.08;1.77;;;20.30;51.90;;;;;;6067936;23;20159;-82
2022/09/06 02:34:24;;;;;;;2.33;1.90;;;20.30;51.40;;;;;;6044041;23;20171;-82
2022/09/06 02:36:57;;;;;;;2.10;1.90;;;20.30;51.30;;;;;;6019145;23;20195;-82
2022/09/06 02:39:28;;;;;;;2.97;1.80;;;20.30;51.40;;;;;;6066608;23;20198;-81
2022/09/06 02:41:58;;;;;;;2.47;2.03;;;20.30;51.40;;;;;;6019946;23;20164;-82
2022/09/06 02:44:25;;;;;;;2.42;1.95;;;20.30;51.40;;;;;;6042665;23;20227;-81
2022/09/06 02:46:57;;;;;;;2.78;1.88;;;20.40;51.50;;;;;;6042511;23;20698;-82
2022/09/06 02:49:25;;;;;;;2.88;1.85;;;20.30;51.40;;;;;;6042417;23;20234;-82
2022/09/06 02:51:54;;;;;;;2.25;1.90;;;20.30;51.40;;;;;;6090556;23;20157;-81
2022/09/06 02:54:20;;;;;;;4.20;1.90;;;20.30;51.50;;;;;;6089928;23;20164;-81
2022/09/06 02:56:47;;;;;;;2.53;1.98;;;20.30;51.40;;;;;;6067079;23;20148;-81
2022/09/06 02:59:12;;;;;;;1.90;1.80;;;20.30;51.50;;;;;;6066604;23;20591;-82
2022/09/06 03:01:39;;;;;;;3.47;1.77;;;20.30;51.50;;;;;;6114711;23;20144;-82
2022/09/06 03:04:12;;;;;;;2.10;1.83;;;20.30;51.50;;;;;;6066988;23;20611;-82
2022/09/06 03:06:41;;;;;;;2.67;1.90;;;20.30;51.40;;;;;;6091060;23;20169;-81
2022/09/06 03:09:09;;;;;;;3.15;1.90;;;20.30;51.50;;;;;;6116371;23;20166;-81
2022/09/06 03:11:36;;;;;;;2.13;1.77;;;20.30;51.50;;;;;;6067007;23;20215;-82
2022/09/06 03:14:02;;;;;;;3.55;1.95;;;20.30;51.50;;;;;;6088442;23;20195;-82
2022/09/06 03:16:37;;;;;;;2.80;1.80;;;20.30;51.50;;;;;;6120781;23;20602;-82
2022/09/06 03:19:08;;;;;;;3.50;2.05;;;20.30;51.50;;;;;;6084496;23;20191;-84
2022/09/06 03:21:38;;;;;;;2.38;1.90;;;20.30;51.50;;;;;;6012998;23;20504;-82
2022/09/06 03:24:16;;;;;;;2.15;1.70;;;20.20;51.50;;;;;;6086120;23;20215;-81
2022/09/06 03:26:47;;;;;;;2.60;1.63;;;20.20;51.50;;;;;;6037022;23;20185;-82
2022/09/06 03:29:16;;;;;;;3.30;1.95;;;20.30;51.60;;;;;;6061875;23;20201;-81
2022/09/06 03:31:44;;;;;;;2.13;1.92;;;20.30;51.60;;;;;;6013823;23;20161;-82
2022/09/06 03:34:14;;;;;;;2.85;1.67;;;20.20;51.50;;;;;;6037543;23;20164;-82
2022/09/06 03:36:46;;;;;;;2.75;1.70;;;20.20;51.60;;;;;;6036946;23;20157;-82
2022/09/06 03:39:13;;;;;;;2.17;1.70;;;20.20;51.70;;;;;;6109144;23;20219;-81
2022/09/06 03:41:41;;;;;;;2.35;1.80;;;20.20;51.60;;;;;;6061294;23;20250;-82
2022/09/06 03:44:25;;;;;;;2.10;1.75;;;20.20;51.60;;;;;;6038018;23;20163;-81
2022/09/06 03:46:55;;;;;;;2.00;1.80;;;20.20;51.60;;;;;;6036884;23;20220;-81
2022/09/06 03:49:22;;;;;;;2.35;1.75;;;20.20;51.60;;;;;;6051237;23;20151;-82
2022/09/06 03:52:01;;;;;;;3.22;1.90;;;20.20;51.60;;;;;;6094790;23;20214;-82
2022/09/06 03:54:28;;;;;;;2.05;1.80;;;20.20;51.60;;;;;;6047014;23;20151;-81
2022/09/06 03:56:57;;;;;;;2.25;1.88;;;20.20;51.60;;;;;;6047376;23;20186;-81
2022/09/06 03:59:23;;;;;;;2.35;1.75;;;20.20;51.60;;;;;;6144140;23;20164;-81
2022/09/06 04:01:49;;;;;;;2.65;1.55;;;20.20;51.70;;;;;;6096394;23;20721;-82
2022/09/06 04:04:15;;;;;;;1.92;1.73;;;20.20;51.60;;;;;;6120013;23;20132;-82
2022/09/06 04:06:44;;;;;;;3.17;2.10;;;20.20;51.70;;;;;;6095467;23;20139;-81
2022/09/06 04:09:10;;;;;;;2.80;1.77;;;20.20;51.60;;;;;;6144768;23;20147;-81
2022/09/06 04:12:02;;;;;;;2.05;1.60;;;20.30;51.60;;;;;;6096445;23;20159;-82
2022/09/06 04:14:32;;;;;;;2.58;1.83;;;20.20;51.70;;;;;;6119713;23;20653;-82
2022/09/06 04:16:58;;;;;;;2.70;1.75;;;20.20;51.70;;;;;;6119433;23;20159;-81
2022/09/06 04:19:28;;;;;;;4.35;1.88;;;20.20;51.70;;;;;;6095654;23;20182;-82
2022/09/06 04:21:55;;;;;;;2.05;1.55;;;20.20;51.70;;;;;;6119714;23;20148;-81
2022/09/06 04:24:21;;;;;;;1.75;1.63;;;20.20;51.70;;;;;;6120341;23;20134;-81
2022/09/06 04:26:49;;;;;;;3.85;1.80;;;20.20;51.70;;;;;;6096029;23;20147;-84
2022/09/06 04:29:17;;;;;;;1.70;1.50;;;20.20;51.80;;;;;;6079117;23;20224;-82
2022/09/06 04:31:46;;;;;;;1.65;1.55;;;20.20;51.70;;;;;;6007929;23;20224;-82
2022/09/06 04:34:15;;;;;;;2.28;1.85;;;20.20;51.70;;;;;;6008393;23;20165;-83
2022/09/06 04:36:48;;;;;;;2.15;1.65;;;20.20;51.70;;;;;;6032337;23;20165;-82
2022/09/06 04:39:14;;;;;;;2.38;1.60;;;20.20;51.70;;;;;;6009070;23;20650;-82
2022/09/06 04:41:41;;;;;;;2.35;1.92;;;20.20;51.70;;;;;;6078940;23;20153;-82
2022/09/06 04:44:09;;;;;;;1.92;1.70;;;20.20;51.80;;;;;;6032860;23;20150;-82
2022/09/06 04:46:36;;;;;;;2.65;1.85;;;20.20;51.80;;;;;;6008026;23;20152;-82
2022/09/06 04:49:01;;;;;;;1.67;1.58;;;20.20;51.90;;;;;;6055153;23;20490;-82
2022/09/06 04:51:28;;;;;;;2.13;1.60;;;20.20;51.90;;;;;;6054511;23;20150;-82
2022/09/06 04:53:54;;;;;;;1.92;1.63;;;20.20;51.90;;;;;;6054279;23;20154;-84
2022/09/06 04:56:21;;;;;;;2.13;1.70;;;20.20;51.90;;;;;;6030407;23;20174;-82
2022/09/06 04:58:50;;;;;;;1.83;1.58;;;20.20;52.00;;;;;;6005744;23;20188;-85
2022/09/06 05:01:19;;;;;;;3.35;1.70;;;20.10;51.90;;;;;;6097348;23;20153;-83
2022/09/06 05:03:48;;;;;;;1.77;1.67;;;20.10;51.80;;;;;;6076829;23;20154;-83
2022/09/06 05:06:21;;;;;;;1.70;1.40;;;20.10;51.80;;;;;;6101087;23;20169;-85
2022/09/06 05:08:48;;;;;;;2.25;1.60;;;20.20;51.80;;;;;;6053441;23;20149;-83
2022/09/06 05:11:18;;;;;;;1.80;1.40;;;20.20;52.10;;;;;;6030437;23;20161;-82
2022/09/06 05:13:46;;;;;;;1.42;1.33;;;20.10;52.10;;;;;;6078187;23;20224;-82
2022/09/06 05:16:16;;;;;;;1.60;1.40;;;20.10;52.30;;;;;;6054500;23;20265;-82
2022/09/06 05:18:48;;;;;;;1.42;1.33;;;20.10;52.50;;;;;;6030198;23;20196;-85
2022/09/06 05:21:17;;;;;;;2.90;1.50;;;20.10;52.60;;;;;;6054172;23;20181;-83
2022/09/06 05:23:46;;;;;;;1.38;1.27;;;20.10;52.60;;;;;;6054235;23;20158;-83
2022/09/06 05:26:12;;;;;;;2.22;1.40;;;20.00;52.60;;;;;;6031068;23;20161;-83
2022/09/06 05:28:41;;;;;;;1.48;1.35;;;20.00;52.60;;;;;;6054965;23;20221;-83
2022/09/06 05:31:30;;;;;;;1.30;1.20;;;20.00;52.70;;;;;;6058139;23;20161;-83
2022/09/06 05:34:01;;;;;;;1.45;1.35;;;20.00;52.80;;;;;;6066061;23;20164;-84
2022/09/06 05:36:31;;;;;;;1.40;1.15;;;20.00;52.80;;;;;;6079317;23;20242;-84
2022/09/06 05:38:59;;;;;;;1.40;1.30;;;20.00;52.80;;;;;;6058765;23;20247;-85
2022/09/06 05:41:26;;;;;;;1.40;1.30;;;20.00;53.00;;;;;;6034721;23;20237;-84
2022/09/06 05:44:02;;;;;;;1.33;1.23;;;20.00;53.10;;;;;;6083950;23;20140;-82
2022/09/06 05:46:28;;;;;;;1.50;1.40;;;20.10;53.10;;;;;;6013379;23;20155;-83
2022/09/06 05:49:03;;;;;;;1.48;1.38;;;20.10;53.10;;;;;;6015890;23;20229;-84
2022/09/06 05:51:30;;;;;;;1.88;1.38;;;20.10;53.00;;;;;;5968325;24;20163;-83
2022/09/06 05:54:01;;;;;;;1.35;1.25;;;20.10;52.90;;;;;;5970081;23;20148;-83
2022/09/06 05:56:30;;;;;;;1.10;1.00;;;20.20;52.80;;;;;;5969704;24;20163;-83
2022/09/06 05:59:06;;;;;;;1.13;1.02;;;20.10;52.50;;;;;;5970644;24;20653;-82
2022/09/06 06:01:34;;;;;;;2.30;1.58;;;20.20;52.60;;;;;;6018613;23;20310;-82
2022/09/06 06:04:07;;;;;;;1.10;1.00;;;20.20;52.50;;;;;;5994156;23;20170;-82
2022/09/06 06:06:55;;;;;;;1.38;1.27;;;20.20;52.40;;;;;;6017750;23;20187;-82
2022/09/06 06:09:23;;;;;;;0.93;0.90;;;20.30;52.50;;;;;;5992186;23;20159;-82
2022/09/06 06:11:49;;;;;;;1.08;0.98;;;20.20;52.50;;;;;;5968731;24;20219;-82
2022/09/06 06:14:22;;;;;;;1.08;1.00;;;20.20;52.60;;;;;;6020162;23;20254;-83
2022/09/06 06:16:49;;;;;;;0.90;0.90;;;20.20;52.70;;;;;;6007578;23;20244;-86
2022/09/06 06:19:19;;;;;;;2.55;1.00;;;20.20;52.50;;;;;;6051540;23;20193;-84
2022/09/06 06:22:02;;;;;;;1.20;1.10;;;20.20;52.50;;;;;;6005539;23;20161;-84
2022/09/06 06:24:38;;;;;;;2.10;0.90;;;20.20;52.50;;;;;;6071747;23;20160;-83
2022/09/06 06:27:04;;;;;;;2.20;1.10;;;20.30;52.30;;;;;;5979019;23;20158;-82
2022/09/06 06:29:35;;;;;;;1.52;1.10;;;20.30;52.40;;;;;;5966068;23;20641;-83
2022/09/06 06:32:16;;;;;;;1.08;0.90;;;20.30;52.40;;;;;;5983949;24;20160;-83
2022/09/06 06:34:47;;;;;;;1.13;1.00;;;20.30;52.40;;;;;;5961094;24;20228;-83
2022/09/06 06:37:14;;;;;;;0.90;0.90;;;20.30;52.40;;;;;;5984178;24;20156;-82
2022/09/06 06:39:41;;;;;;;1.45;1.25;;;20.40;52.40;;;;;;6004166;23;20160;-85
2022/09/06 06:42:14;;;;;;;1.15;1.05;;;20.40;52.50;;;;;;5957195;24;20174;-83
2022/09/06 06:44:45;;;;;;;1.15;0.98;;;20.30;52.70;;;;;;5934124;24;20621;-85
2022/09/06 06:47:51;;;;;;;1.10;1.00;;;20.30;52.90;;;;;;5938536;24;20224;-84
2022/09/06 06:50:24;;;;;;;1.95;1.20;;;20.30;52.90;;;;;;5975354;23;20164;-84
2022/09/06 06:52:54;;;;;;;1.58;1.02;;;20.30;52.90;;;;;;5956889;24;20675;-83
2022/09/06 06:55:25;;;;;;;3.63;1.40;;;20.30;53.10;;;;;;5911403;24;20168;-86
2022/09/06 06:58:48;;;;;;;;;;;;;;;;;;;;;
2022/09/06 07:01:20;;;;;;;5.05;1.45;;;20.40;53.40;;;;;;5995351;23;20193;-84
2022/09/06 07:04:38;;;;;;;6.72;1.20;;;20.50;54.60;;;;;;5965881;23;20529;-85
2022/09/06 07:07:13;;;;;;;2.05;1.27;;;20.50;53.60;;;;;;6039658;23;20158;-83
2022/09/06 07:09:48;;;;;;;1.80;1.05;;;20.70;53.30;;;;;;6020371;23;20221;-85
2022/09/06 07:12:16;;;;;;;2.45;1.00;;;20.70;53.20;;;;;;6029050;23;20249;-82
2022/09/06 07:14:47;;;;;;;1.40;1.10;;;20.70;53.00;;;;;;6055078;23;20303;-84
2022/09/06 07:17:15;;;;;;;2.47;1.30;;;20.70;52.80;;;;;;6083762;23;20158;-83
2022/09/06 07:20:04;;;;;;;2.85;1.13;;;20.70;52.80;;;;;;6056407;23;20233;-84
2022/09/06 07:22:35;;;;;;;2.80;1.17;;;20.80;52.90;;;;;;6053256;23;20195;-83
2022/09/06 07:25:14;;;;;;;1.70;1.20;;;20.80;52.80;;;;;;6027590;23;20176;-84
2022/09/06 07:27:48;;;;;;;1.27;1.17;;;20.70;52.60;;;;;;6056325;23;20163;-84
2022/09/06 07:30:23;;;;;;;5.75;1.10;;;20.70;52.70;;;;;;6078908;23;20242;-88
2022/09/06 07:33:11;;;;;;;;;;;;;;;;;;;;;
2022/09/06 07:35:39;;;;;;;2.85;1.10;;;20.70;53.10;;;;;;6033681;23;20187;-82
2022/09/06 07:38:06;;;;;;;2.92;1.58;;;20.70;53.40;;;;;;6053573;23;20258;-83
2022/09/06 07:40:36;;;;;;;2.72;1.23;;;20.70;53.70;;;;;;6028581;23;20219;-83
2022/09/06 07:43:03;;;;;;;2.13;1.30;;;20.70;53.40;;;;;;6074839;23;20157;-82
2022/09/06 07:45:31;;;;;;;3.30;1.10;;;20.70;53.40;;;;;;6074476;23;20156;-82
2022/09/06 07:47:58;;;;;;;1.20;1.10;;;20.80;53.50;;;;;;6074683;23;20160;-83
2022/09/06 07:50:26;;;;;;;1.58;1.30;;;20.80;53.50;;;;;;6075293;23;20164;-83
2022/09/06 07:52:53;;;;;;;2.13;1.05;;;20.80;53.40;;;;;;6034598;23;20178;-83
2022/09/06 07:55:20;;;;;;;1.10;1.00;;;20.80;53.50;;;;;;6080132;23;20163;-85
2022/09/06 07:57:47;;;;;;;5.70;1.15;;;20.80;53.50;;;;;;6104673;23;20258;-84
2022/09/06 08:00:18;;;;;;;2.40;1.38;;;20.80;54.10;;;;;;6057170;23;20239;-85
2022/09/06 08:02:45;;;;;;;1.90;1.20;;;20.90;53.70;;;;;;6106592;23;20242;-83
2022/09/06 08:05:12;;;;;;;3.17;1.30;;;20.80;53.50;;;;;;6031967;23;20317;-85
2022/09/06 08:08:14;;;;;;;4.00;1.10;;;20.70;53.60;;;;;;6080784;23;20190;-83
2022/09/06 08:10:54;;;;;;;4.10;1.52;;;20.80;53.70;;;;;;6031196;23;20172;-85
2022/09/06 08:13:20;;;;;;;1.60;1.33;;;20.80;53.70;;;;;;6025065;23;20200;-85
2022/09/06 08:15:46;;;;;;;3.05;1.20;;;20.80;53.90;;;;;;6042266;23;20541;-83
2022/09/06 08:18:12;;;;;;;1.38;1.27;;;20.80;53.80;;;;;;6041643;23;20218;-84
2022/09/06 08:20:38;;;;;;;4.20;1.27;;;20.90;53.90;;;;;;6042678;23;20157;-84
2022/09/06 08:23:17;;;;;;;3.15;1.40;;;20.90;54.10;;;;;;6044318;23;20161;-85
2022/09/06 08:26:00;;;;;;;1.70;1.20;;;20.90;53.90;;;;;;5995430;23;20180;-83
2022/09/06 08:28:33;;;;;;;1.50;1.27;;;20.90;54.20;;;;;;6001591;23;20212;-84
2022/09/06 08:31:11;;;;;;;1.50;1.17;;;20.90;54.20;;;;;;6017001;23;20629;-85
2022/09/06 08:33:40;;;;;;;2.20;1.40;;;20.90;54.20;;;;;;6016989;23;20236;-85
2022/09/06 08:36:09;;;;;;;1.35;1.10;;;21.00;54.20;;;;;;6017247;23;20165;-85
2022/09/06 08:38:35;;;;;;;2.25;1.40;;;21.00;54.30;;;;;;6018872;23;20229;-84
2022/09/06 08:41:30;;;;;;;3.75;1.20;;;20.90;54.30;;;;;;6041389;23;20187;-85
2022/09/06 08:44:01;;;;;;;2.03;1.10;;;20.90;54.60;;;;;;6040545;23;20157;-86
2022/09/06 08:46:39;;;;;;;4.75;1.50;;;20.90;54.60;;;;;;6075720;23;20167;-84
2022/09/06 08:49:05;;;;;;;2.15;1.50;;;20.90;54.60;;;;;;6056872;23;20156;-86
2022/09/06 08:51:55;;;;;;;2.45;1.30;;;20.90;54.70;;;;;;6075440;23;20144;-83
2022/09/06 08:54:29;;;;;;;1.88;1.13;;;20.90;54.70;;;;;;6097758;23;20160;-83
2022/09/06 08:57:02;;;;;;;2.83;1.08;;;21.00;54.90;;;;;;6075046;23;20211;-84
2022/09/06 08:59:30;;;;;;;4.90;1.60;;;21.00;55.00;;;;;;6122399;23;20234;-83
2022/09/06 09:02:11;;;;;;;5.80;1.48;;;20.90;55.30;;;;;;6124414;23;20188;-86
2022/09/06 09:04:49;;;;;;;3.58;1.63;;;20.90;55.20;;;;;;6099417;23;20234;-83
2022/09/06 09:07:34;;;;;;;4.68;1.50;;;21.00;55.30;;;;;;6100650;23;20253;-85
2022/09/06 09:10:20;;;;;;;7.95;1.48;;;21.00;55.30;;;;;;6077583;23;20170;-84
2022/09/06 09:12:48;;;;;;;2.33;1.30;;;21.00;55.30;;;;;;6101422;23;20227;-85
2022/09/06 09:15:43;;;;;;;5.93;1.60;;;21.00;55.40;;;;;;6101049;23;20136;-85
2022/09/06 09:18:16;;;;;;;10.20;2.15;;;21.10;55.20;;;;;;6050464;23;20226;-85
2022/09/06 09:20:53;;;;;;;6.10;1.80;;;21.20;55.50;;;;;;6055717;23;20156;-84
2022/09/06 09:23:20;;;;;;;9.82;1.85;;;21.30;55.80;;;;;;6056749;23;20449;-86
2022/09/06 09:25:51;;;;;;;11.50;2.13;;;21.30;55.90;;;;;;6050396;23;20491;-83
2022/09/06 09:28:23;;;;;;;10.02;1.88;;;21.20;56.20;;;;;;6029234;23;20192;-85
2022/09/06 09:30:57;;;;;;;13.88;1.85;;;21.20;56.10;;;;;;6024466;23;20183;-86
2022/09/06 09:33:38;;;;;;;19.08;2.58;;;21.20;55.70;;;;;;5964406;23;20174;-85
2022/09/06 09:36:19;;;;;;;9.25;2.08;;;21.20;56.00;;;;;;5987849;23;20173;-86
2022/09/06 09:38:57;;;;;;;9.43;2.00;;;21.30;56.50;;;;;;5988663;23;20193;-84
2022/09/06 09:41:35;;;;;;;9.55;1.58;;;21.40;56.70;;;;;;5987963;23;20178;-85
2022/09/06 09:47:56;;;;;;;10.63;1.50;;;21.40;55.50;;;;;;5940839;24;20174;-86
2022/09/06 09:51:27;;;;;;;7.35;1.80;;;21.30;55.30;;;;;;5840208;24;20285;-85
2022/09/06 09:54:24;;;;;;;11.45;1.80;;;21.30;55.40;;;;;;5786438;24;20488;-84
2022/09/06 09:56:52;;;;;;;13.27;2.45;;;21.30;55.40;;;;;;5711795;25;20177;-85
2022/09/06 09:59:24;;;;;;;16.52;2.25;;;21.40;55.50;;;;;;5712990;25;20206;-84
2022/09/06 10:02:00;;;;;;;9.80;2.28;;;21.30;55.60;;;;;;5711861;25;20180;-84
2022/09/06 10:04:36;;;;;;;10.73;2.20;;;21.30;55.60;;;;;;5712669;25;20252;-82
2022/09/06 10:07:20;;;;;;;14.15;2.35;;;21.20;55.80;;;;;;5713657;25;20214;-83
2022/09/06 10:10:03;;;;;;;10.63;2.20;;;21.20;55.80;;;;;;5714086;25;20170;-82
2022/09/06 10:12:38;;;;;;;13.00;2.33;;;21.10;56.00;;;;;;5714915;24;20608;-84
2022/09/06 10:15:27;;;;;;;19.40;2.60;;;21.20;55.90;;;;;;5725805;25;20216;-84
2022/09/06 10:17:53;;;;;;;13.85;2.17;;;21.10;56.10;;;;;;5764343;24;20196;-85
2022/09/06 10:20:25;;;;;;;13.77;2.20;;;21.10;56.20;;;;;;5794844;24;20624;-84
2022/09/06 10:22:59;;;;;;;11.18;2.10;;;21.10;56.20;;;;;;5813924;24;20235;-83
2022/09/06 10:25:49;;;;;;;6.95;2.42;;;21.00;56.10;;;;;;5992352;23;20222;-85
2022/09/06 10:28:40;;;;;;;;;;;;;;;;;;;;;
2022/09/06 10:38:38;;;;;;;7.30;1.88;;;21.10;55.90;;;;;;6123876;23;20206;-82
2022/09/06 10:41:39;;;;;;;6.13;1.88;;;21.00;56.00;;;;;;6108879;23;20566;-83
2022/09/06 10:44:39;;;;;;;6.22;1.90;;;21.10;55.90;;;;;;6062524;23;20160;-84
2022/09/06 10:47:11;;;;;;;6.00;1.73;;;21.10;56.00;;;;;;6006631;23;20157;-84
2022/09/06 10:49:50;;;;;;;8.27;1.90;;;21.10;56.20;;;;;;6041351;23;20161;-85
2022/09/06 10:52:22;;;;;;;7.70;2.10;;;21.20;56.00;;;;;;5973179;23;20673;-85
2022/09/06 10:54:48;;;;;;;4.15;1.70;;;21.20;56.30;;;;;;6036036;23;20147;-83
2022/09/06 10:57:22;;;;;;;5.28;1.90;;;21.30;56.00;;;;;;6035537;23;20226;-84
2022/09/06 10:59:58;;;;;;;9.07;2.22;;;21.30;55.80;;;;;;6039284;23;20471;-87
2022/09/06 11:02:46;;;;;;;6.85;1.85;;;21.30;55.70;;;;;;5967802;23;20184;-85
2022/09/06 11:05:19;;;;;;;6.38;2.10;;;21.20;55.90;;;;;;6037126;23;20141;-85
2022/09/06 11:07:48;;;;;;;5.50;1.77;;;21.20;55.80;;;;;;6036606;23;20267;-85
2022/09/06 11:10:26;;;;;;;8.85;2.03;;;21.30;55.70;;;;;;6013704;23;20650;-85
2022/09/06 11:13:15;;;;;;;7.78;1.83;;;21.30;55.50;;;;;;6036376;23;20197;-84
2022/09/06 11:15:52;;;;;;;7.15;1.75;;;21.30;55.80;;;;;;6042295;23;20536;-87
2022/09/06 11:18:31;;;;;;;5.70;1.65;;;21.20;55.70;;;;;;6094244;23;20576;-85
2022/09/06 11:21:23;;;;;;;11.77;2.08;;;21.20;55.70;;;;;;6095399;23;20129;-85
2022/09/06 11:24:21;;;;;;;10.77;1.77;;;21.20;55.70;;;;;;6117487;23;20151;-85
2022/09/06 11:27:06;;;;;;;4.07;2.13;;;21.30;55.70;;;;;;6155477;23;20444;-83
2022/09/06 11:29:33;;;;;;;3.63;1.65;;;21.30;55.70;;;;;;6130023;23;20211;-82
2022/09/06 11:32:04;;;;;;;7.75;2.20;;;21.30;55.60;;;;;;6129734;23;20186;-85
2022/09/06 11:34:31;;;;;;;13.13;2.25;;;21.30;55.60;;;;;;6104480;23;20148;-86
2022/09/06 11:37:26;;;;;;;13.70;2.40;;;21.30;55.80;;;;;;6104933;23;20175;-85
2022/09/06 11:40:05;;;;;;;13.18;2.38;;;21.30;55.50;;;;;;6151947;23;20530;-84
2022/09/06 11:43:02;;;;;;;11.18;2.60;;;21.40;55.70;;;;;;6105219;23;20155;-86
2022/09/06 11:45:42;;;;;;;14.85;2.88;;;21.40;55.60;;;;;;6132107;23;20156;-84
2022/09/06 11:48:33;;;;;;;10.23;2.30;;;21.30;55.20;;;;;;6103909;23;20554;-85
2022/09/06 11:51:05;;;;;;;14.35;2.30;;;21.30;55.10;;;;;;6154908;23;20139;-84
2022/09/06 11:54:02;;;;;;;13.40;2.10;;;21.30;55.10;;;;;;6105297;23;20278;-86
2022/09/06 11:56:35;;;;;;;11.55;2.25;;;21.20;55.40;;;;;;6106027;23;20218;-84
2022/09/06 11:59:05;;;;;;;12.60;2.13;;;21.30;55.50;;;;;;6131390;23;20514;-84
2022/09/06 12:01:38;;;;;;;8.20;2.20;;;21.30;55.30;;;;;;6156705;23;20401;-85
2022/09/06 12:04:04;;;;;;;8.45;2.75;;;21.40;55.40;;;;;;6057683;23;20241;-85
2022/09/06 12:06:37;;;;;;;7.13;1.70;;;21.30;55.30;;;;;;6109516;23;20143;-86
2022/09/06 12:09:32;;;;;;;13.82;2.55;;;21.40;55.10;;;;;;6133016;23;20226;-86
2022/09/06 12:11:59;;;;;;;8.98;1.77;;;21.30;55.30;;;;;;6032602;23;20166;-87
2022/09/06 12:14:32;;;;;;;8.52;2.20;;;21.30;55.10;;;;;;6103802;23;20198;-85
2022/09/06 12:17:23;;;;;;;8.52;2.00;;;21.30;55.00;;;;;;6105998;23;20250;-86
2022/09/06 12:20:05;;;;;;;9.27;2.55;;;21.30;55.30;;;;;;6134772;23;20162;-87
2022/09/06 12:22:56;;;;;;;6.18;2.15;;;21.30;55.10;;;;;;6139382;23;20186;-86
2022/09/06 12:25:51;;;;;;;9.57;2.00;;;21.30;55.30;;;;;;6087813;23;20147;-87
2022/09/06 12:28:26;;;;;;;7.70;2.05;;;21.30;55.30;;;;;;6087585;23;20206;-84
2022/09/06 12:30:52;;;;;;;8.95;2.55;;;21.40;55.40;;;;;;6106789;23;20138;-83
2022/09/06 12:33:24;;;;;;;5.82;2.15;;;21.30;55.30;;;;;;6130098;23;20151;-84
2022/09/06 12:35:50;;;;;;;7.63;2.22;;;21.30;55.30;;;;;;6105983;23;20482;-83
2022/09/06 12:38:16;;;;;;;6.40;2.17;;;21.40;55.40;;;;;;6105191;23;20159;-84
2022/09/06 12:40:47;;;;;;;8.32;2.20;;;21.40;55.30;;;;;;6105669;23;20650;-84
2022/09/06 12:43:14;;;;;;;9.13;1.77;;;21.40;55.10;;;;;;6129512;23;20159;-84
2022/09/06 12:45:43;;;;;;;6.57;2.17;;;21.40;54.70;;;;;;6081049;23;20666;-85
2022/09/06 12:48:10;;;;;;;13.77;2.28;;;21.50;54.80;;;;;;6080826;23;20163;-84
2022/09/06 12:50:36;;;;;;;8.07;1.95;;;21.40;54.90;;;;;;6081787;23;20158;-84
2022/09/06 12:53:03;;;;;;;5.53;2.03;;;21.40;54.80;;;;;;6104788;23;20136;-83
2022/09/06 12:55:31;;;;;;;12.05;2.40;;;21.40;54.90;;;;;;6105495;23;20243;-83
2022/09/06 12:58:00;;;;;;;10.18;2.40;;;21.40;55.00;;;;;;6104600;23;20179;-85
2022/09/06 13:00:31;;;;;;;6.15;2.00;;;21.40;54.80;;;;;;6106051;23;20191;-83
2022/09/06 13:03:13;;;;;;;7.05;2.08;;;21.40;54.70;;;;;;6105880;23;20482;-83
2022/09/06 13:05:39;;;;;;;7.40;2.00;;;21.40;54.80;;;;;;6107018;23;20211;-84
2022/09/06 13:08:17;;;;;;;7.72;2.28;;;21.40;54.50;;;;;;6129110;23;20136;-84
2022/09/06 13:10:44;;;;;;;6.15;2.25;;;21.40;54.80;;;;;;6129388;23;20190;-85
2022/09/06 13:13:09;;;;;;;11.50;2.20;;;21.40;55.00;;;;;;6072100;23;20200;-83
2022/09/06 13:15:35;;;;;;;5.38;1.90;;;21.50;55.20;;;;;;6095545;23;20263;-87
2022/09/06 13:18:31;;;;;;;8.57;2.28;;;21.50;55.10;;;;;;6096422;23;20232;-85
2022/09/06 13:21:02;;;;;;;8.30;2.50;;;21.50;55.10;;;;;;6125935;23;20183;-81
2022/09/06 13:23:28;;;;;;;5.55;2.10;;;21.70;54.80;;;;;;6124944;23;20201;-83
2022/09/06 13:25:54;;;;;;;6.03;2.20;;;21.70;54.60;;;;;;6121616;23;20141;-81
2022/09/06 13:28:28;;;;;;;5.00;2.00;;;21.80;54.60;;;;;;6121637;23;20182;-83
2022/09/06 13:31:04;;;;;;;8.98;2.40;;;21.70;54.80;;;;;;6099112;23;20231;-85
2022/09/06 13:33:34;;;;;;;9.15;2.20;;;21.70;54.90;;;;;;6128633;23;20242;-85
2022/09/06 13:36:09;;;;;;;12.05;2.15;;;21.60;55.10;;;;;;6056038;23;20178;-85